createdAt,value
2017-11-20T00:02:21.504Z,14.10
2017-11-20T00:04:51.429Z,14.10
2017-11-20T00:07:20.718Z,14.10
2017-11-20T00:09:50.385Z,14.00
2017-11-20T00:12:19.323Z,14.10
2017-11-20T00:14:48.209Z,14.00
2017-11-20T00:17:17.187Z,13.90
2017-11-20T00:19:46.017Z,13.80
2017-11-20T00:22:14.894Z,13.80
2017-11-20T00:24:44.525Z,13.80
2017-11-20T00:27:14.314Z,13.80
2017-11-20T00:29:44.028Z,13.70
2017-11-20T00:32:13.306Z,13.70
2017-11-20T00:34:42.002Z,13.70
2017-11-20T00:37:11.078Z,13.70
2017-11-20T00:39:40.901Z,13.70
2017-11-20T00:42:10.043Z,13.70
2017-11-20T00:44:39.152Z,13.70
2017-11-20T00:47:08.810Z,13.70
2017-11-20T00:49:37.909Z,13.70
2017-11-20T00:52:07.725Z,13.70
2017-11-20T00:54:37.160Z,13.70
2017-11-20T00:57:08.685Z,13.70
2017-11-20T00:59:39.157Z,13.60
2017-11-20T01:02:08.200Z,13.60
2017-11-20T01:04:37.465Z,13.60
2017-11-20T01:07:06.288Z,13.60
2017-11-20T01:09:36.003Z,13.70
2017-11-20T01:12:05.023Z,13.70
2017-11-20T01:14:35.141Z,13.70
2017-11-20T01:17:03.900Z,13.70
2017-11-20T01:19:32.796Z,13.70
2017-11-20T01:22:02.197Z,13.70
2017-11-20T01:24:31.261Z,13.70
2017-11-20T01:26:59.956Z,13.50
2017-11-20T01:29:29.073Z,13.50
2017-11-20T01:31:58.993Z,13.50
2017-11-20T01:34:27.878Z,13.50
2017-11-20T01:36:56.983Z,13.60
2017-11-20T01:39:26.071Z,13.50
2017-11-20T01:41:55.995Z,13.60
2017-11-20T01:44:25.235Z,13.60
2017-11-20T01:46:55.196Z,13.40
2017-11-20T01:49:24.196Z,13.40
2017-11-20T01:51:54.224Z,13.40
2017-11-20T01:54:23.938Z,13.40
2017-11-20T01:56:54.348Z,13.40
2017-11-20T01:59:23.429Z,13.40
2017-11-20T02:01:52.335Z,13.40
2017-11-20T02:04:21.839Z,13.40
2017-11-20T02:06:50.731Z,13.20
2017-11-20T02:09:20.469Z,13.30
2017-11-20T02:11:49.333Z,13.30
2017-11-20T02:14:18.222Z,13.40
2017-11-20T02:16:47.078Z,13.40
2017-11-20T02:19:16.721Z,13.40
2017-11-20T02:21:45.613Z,13.40
2017-11-20T02:24:14.505Z,13.30
2017-11-20T02:26:43.396Z,13.40
2017-11-20T02:29:13.108Z,13.40
2017-11-20T02:31:42.002Z,13.40
2017-11-20T02:34:11.713Z,13.50
2017-11-20T02:36:40.806Z,13.50
2017-11-20T02:39:09.693Z,13.40
2017-11-20T02:41:38.897Z,13.40
2017-11-20T02:44:07.994Z,13.40
2017-11-20T02:46:38.108Z,13.30
2017-11-20T02:49:06.945Z,13.30
2017-11-20T02:51:36.914Z,13.10
2017-11-20T02:54:05.877Z,13.10
2017-11-20T02:56:34.804Z,13.10
2017-11-20T02:59:03.693Z,13.10
2017-11-20T03:01:33.198Z,13.10
2017-11-20T03:04:02.091Z,13.00
2017-11-20T03:06:31.598Z,12.90
2017-11-20T03:09:01.304Z,12.90
2017-11-20T03:11:31.012Z,12.90
2017-11-20T03:13:59.669Z,12.90
2017-11-20T03:16:28.590Z,12.90
2017-11-20T03:18:57.280Z,13.00
2017-11-20T03:21:26.067Z,13.00
2017-11-20T03:23:55.005Z,13.10
2017-11-20T03:26:23.750Z,13.00
2017-11-20T03:28:52.581Z,13.00
2017-11-20T03:31:21.321Z,13.00
2017-11-20T03:33:50.005Z,13.00
2017-11-20T03:36:18.692Z,13.00
2017-11-20T03:38:47.583Z,13.10
2017-11-20T03:41:16.476Z,13.10
2017-11-20T03:43:46.186Z,13.00
2017-11-20T03:46:15.078Z,13.00
2017-11-20T03:48:43.867Z,13.00
2017-11-20T03:51:12.758Z,12.90
2017-11-20T03:53:41.644Z,13.00
2017-11-20T03:56:10.338Z,13.00
2017-11-20T03:58:39.127Z,12.90
2017-11-20T04:01:07.807Z,12.90
2017-11-20T04:03:36.495Z,12.80
2017-11-20T04:06:05.366Z,12.90
2017-11-20T04:08:34.224Z,12.80
2017-11-20T04:11:02.961Z,12.90
2017-11-20T04:13:31.652Z,12.90
2017-11-20T04:16:00.542Z,13.00
2017-11-20T04:18:29.180Z,12.90
2017-11-20T04:20:57.926Z,12.90
2017-11-20T04:23:26.814Z,12.90
2017-11-20T04:25:55.490Z,12.90
2017-11-20T04:28:24.377Z,12.90
2017-11-20T04:30:53.687Z,12.90
2017-11-20T04:33:23.501Z,12.80
2017-11-20T04:35:52.494Z,12.70
2017-11-20T04:38:21.376Z,12.70
2017-11-20T04:40:50.267Z,12.70
2017-11-20T04:43:19.159Z,12.60
2017-11-20T04:45:47.954Z,12.60
2017-11-20T04:48:16.838Z,12.60
2017-11-20T04:50:45.728Z,12.70
2017-11-20T04:53:14.623Z,12.70
2017-11-20T04:55:43.515Z,12.70
2017-11-20T04:58:12.403Z,12.70
2017-11-20T05:00:41.192Z,12.70
2017-11-20T05:03:09.876Z,12.70
2017-11-20T05:05:38.871Z,12.70
2017-11-20T05:08:07.777Z,12.70
2017-11-20T05:10:36.448Z,12.70
2017-11-20T05:13:05.338Z,12.70
2017-11-20T05:15:34.024Z,12.70
2017-11-20T05:18:03.537Z,12.80
2017-11-20T05:20:32.218Z,12.70
2017-11-20T05:23:00.917Z,12.80
2017-11-20T05:25:29.591Z,12.70
2017-11-20T05:27:58.378Z,12.70
2017-11-20T05:30:27.271Z,12.70
2017-11-20T05:32:56.166Z,12.70
2017-11-20T05:35:24.848Z,12.70
2017-11-20T05:37:53.531Z,12.70
2017-11-20T05:40:22.117Z,12.70
2017-11-20T05:42:50.803Z,12.70
2017-11-20T05:45:19.697Z,12.70
2017-11-20T05:47:48.490Z,12.60
2017-11-20T05:50:17.169Z,12.60
2017-11-20T05:52:45.860Z,12.60
2017-11-20T05:55:14.747Z,12.60
2017-11-20T05:57:43.444Z,12.60
2017-11-20T06:00:12.536Z,12.70
2017-11-20T06:02:41.428Z,12.70
2017-11-20T06:05:10.317Z,12.70
2017-11-20T06:07:38.997Z,12.70
2017-11-20T06:10:07.681Z,12.70
2017-11-20T06:12:36.371Z,12.70
2017-11-20T06:15:05.160Z,12.70
2017-11-20T06:17:33.845Z,12.70
2017-11-20T06:20:02.532Z,12.70
2017-11-20T06:22:31.430Z,12.70
2017-11-20T06:25:00.106Z,12.70
2017-11-20T06:27:28.791Z,12.70
2017-11-20T06:29:57.479Z,12.60
2017-11-20T06:32:26.271Z,12.60
2017-11-20T06:34:55.171Z,12.60
2017-11-20T06:37:24.052Z,12.70
2017-11-20T06:39:52.742Z,12.70
2017-11-20T06:42:21.442Z,12.70
2017-11-20T06:44:50.313Z,12.70
2017-11-20T06:47:19.102Z,12.70
2017-11-20T06:49:47.888Z,12.70
2017-11-20T06:52:16.576Z,12.80
2017-11-20T06:54:45.263Z,12.90
2017-11-20T06:57:13.947Z,13.00
2017-11-20T06:59:42.640Z,12.90
2017-11-20T07:02:11.451Z,12.90
2017-11-20T07:04:40.316Z,13.00
2017-11-20T07:07:09.212Z,12.90
2017-11-20T07:09:37.891Z,13.00
2017-11-20T07:12:06.576Z,13.00
2017-11-20T07:14:35.492Z,13.00
2017-11-20T07:17:04.154Z,13.00
2017-11-20T07:19:32.952Z,13.10
2017-11-20T07:22:01.841Z,13.10
2017-11-20T07:24:30.623Z,13.20
2017-11-20T07:27:02.587Z,13.20
2017-11-20T07:29:43.971Z,13.30
2017-11-20T07:32:12.662Z,13.30
2017-11-20T07:34:53.024Z,13.30
2017-11-20T07:37:34.408Z,13.40
2017-11-20T07:40:14.762Z,13.40
2017-11-20T07:42:43.551Z,13.40
2017-11-20T07:45:12.352Z,13.40
2017-11-20T07:47:42.868Z,13.40
2017-11-20T07:50:11.759Z,13.50
2017-11-20T07:52:40.549Z,13.50
2017-11-20T07:55:09.234Z,13.60
2017-11-20T07:57:37.920Z,13.70
2017-11-20T08:00:06.654Z,13.70
2017-11-20T08:02:35.395Z,13.80
2017-11-20T08:05:04.288Z,13.80
2017-11-20T08:07:32.973Z,13.90
2017-11-20T08:10:01.659Z,13.90
2017-11-20T08:12:31.367Z,14.00
2017-11-20T08:15:00.055Z,14.00
2017-11-20T08:17:28.846Z,14.10
2017-11-20T08:19:58.027Z,14.20
2017-11-20T08:22:26.837Z,14.30
2017-11-20T08:24:55.718Z,14.40
2017-11-20T08:27:24.560Z,14.50
2017-11-20T08:29:53.346Z,14.60
2017-11-20T08:32:22.746Z,14.80
2017-11-20T08:34:51.901Z,14.70
2017-11-20T08:37:20.951Z,14.80
2017-11-20T08:39:49.680Z,14.80
2017-11-20T08:42:18.468Z,14.80
2017-11-20T08:44:47.361Z,14.90
2017-11-20T08:47:16.631Z,15.00
2017-11-20T08:49:45.683Z,15.00
2017-11-20T08:52:14.448Z,15.10
2017-11-20T08:54:45.078Z,15.10
2017-11-20T08:57:14.434Z,15.20
2017-11-20T08:59:43.779Z,15.20
2017-11-20T09:02:13.515Z,15.20
2017-11-20T09:04:42.381Z,15.20
2017-11-20T09:07:11.679Z,15.30
2017-11-20T09:09:40.620Z,15.40
2017-11-20T09:12:09.368Z,15.40
2017-11-20T09:14:38.271Z,15.40
2017-11-20T09:17:07.451Z,15.40
2017-11-20T09:19:36.345Z,15.60
2017-11-20T09:22:05.230Z,15.70
2017-11-20T09:24:34.532Z,15.70
2017-11-20T09:27:03.422Z,15.70
2017-11-20T09:29:33.338Z,15.80
2017-11-20T09:32:02.235Z,15.90
2017-11-20T09:34:31.021Z,15.90
2017-11-20T09:36:59.706Z,15.90
2017-11-20T09:39:28.495Z,15.90
2017-11-20T09:41:57.280Z,15.90
2017-11-20T09:44:26.171Z,15.90
2017-11-20T09:46:55.269Z,15.90
2017-11-20T09:49:24.058Z,16.00
2017-11-20T09:51:52.946Z,16.00
2017-11-20T09:54:21.735Z,16.00
2017-11-20T09:56:50.524Z,16.00
2017-11-20T09:59:19.414Z,16.00
2017-11-20T10:01:49.227Z,15.90
2017-11-20T10:04:18.015Z,15.90
2017-11-20T10:06:46.905Z,16.00
2017-11-20T10:09:15.904Z,16.20
2017-11-20T10:11:45.618Z,16.40
2017-11-20T10:14:15.529Z,16.40
2017-11-20T10:16:45.251Z,16.40
2017-11-20T10:19:14.067Z,16.40
2017-11-20T10:21:43.017Z,16.60
2017-11-20T10:24:12.163Z,16.70
2017-11-20T10:26:41.110Z,16.70
2017-11-20T10:29:09.999Z,16.60
2017-11-20T10:31:39.505Z,16.70
2017-11-20T10:34:09.221Z,16.70
2017-11-20T10:36:39.130Z,16.60
2017-11-20T10:39:08.158Z,16.60
2017-11-20T10:41:37.013Z,16.60
2017-11-20T10:44:05.903Z,16.60
2017-11-20T10:46:35.615Z,16.60
2017-11-20T10:49:04.608Z,16.60
2017-11-20T10:51:33.330Z,16.70
2017-11-20T10:54:03.519Z,16.80
2017-11-20T10:56:32.407Z,16.80
2017-11-20T10:59:01.301Z,16.70
2017-11-20T11:01:30.401Z,16.70
2017-11-20T11:03:59.491Z,16.90
2017-11-20T11:06:28.383Z,16.80
2017-11-20T11:08:57.372Z,16.80
2017-11-20T11:11:26.379Z,16.80
2017-11-20T11:13:55.261Z,17.00
2017-11-20T11:16:24.157Z,17.10
2017-11-20T11:18:53.866Z,17.20
2017-11-20T11:21:23.541Z,17.30
2017-11-20T11:23:52.483Z,17.30
2017-11-20T11:26:21.668Z,17.20
2017-11-20T11:28:50.249Z,17.20
2017-11-20T11:31:19.161Z,17.20
2017-11-20T11:33:48.200Z,17.20
2017-11-20T11:36:17.133Z,17.30
2017-11-20T11:38:47.037Z,17.40
2017-11-20T11:41:15.872Z,17.30
2017-11-20T11:43:45.847Z,17.40
2017-11-20T11:46:14.735Z,17.50
2017-11-20T11:48:43.626Z,17.50
2017-11-20T11:51:12.519Z,17.60
2017-11-20T11:53:41.359Z,17.60
2017-11-20T11:56:10.504Z,17.60
2017-11-20T11:58:39.301Z,17.60
2017-11-20T12:01:08.622Z,17.00
2017-11-20T12:03:37.481Z,17.60
2017-11-20T12:06:07.488Z,17.60
2017-11-20T12:08:36.506Z,17.60
2017-11-20T12:11:05.334Z,17.60
2017-11-20T12:13:34.276Z,17.50
2017-11-20T12:16:05.009Z,17.50
2017-11-20T12:18:33.912Z,17.40
2017-11-20T12:21:02.751Z,17.40
2017-11-20T12:23:31.685Z,17.40
2017-11-20T12:26:00.575Z,17.40
2017-11-20T12:28:29.466Z,17.50
2017-11-20T12:30:58.420Z,17.60
2017-11-20T12:33:27.355Z,17.60
2017-11-20T12:35:57.060Z,17.60
2017-11-20T12:38:25.950Z,17.60
2017-11-20T12:40:55.559Z,17.50
2017-11-20T12:43:25.103Z,17.50
2017-11-20T12:45:53.954Z,17.50
2017-11-20T12:48:22.850Z,17.60
2017-11-20T12:50:51.736Z,17.60
2017-11-20T12:53:21.240Z,17.60
2017-11-20T12:55:50.951Z,17.60
2017-11-20T12:58:19.844Z,17.60
2017-11-20T13:00:49.555Z,17.70
2017-11-20T13:03:18.444Z,17.70
2017-11-20T13:05:47.337Z,17.70
2017-11-20T13:08:16.642Z,17.70
2017-11-20T13:10:47.377Z,17.60
2017-11-20T13:13:16.628Z,17.60
2017-11-20T13:15:45.568Z,17.60
2017-11-20T13:18:14.457Z,17.60
2017-11-20T13:20:43.356Z,17.70
2017-11-20T13:23:13.064Z,17.80
2017-11-20T13:25:43.591Z,17.80
2017-11-20T13:28:12.633Z,17.70
2017-11-20T13:30:43.838Z,17.70
2017-11-20T13:33:13.487Z,17.80
2017-11-20T13:35:42.437Z,17.80
2017-11-20T13:38:12.137Z,17.80
2017-11-20T13:40:41.849Z,17.70
2017-11-20T13:43:10.740Z,17.70
2017-11-20T13:45:39.834Z,17.70
2017-11-20T13:48:08.627Z,17.70
2017-11-20T13:50:37.617Z,17.70
2017-11-20T13:53:07.078Z,17.70
2017-11-20T13:55:40.465Z,17.80
2017-11-20T13:58:10.256Z,17.70
2017-11-20T14:00:55.605Z,17.90
2017-11-20T14:03:24.493Z,17.90
2017-11-20T14:05:54.220Z,18.00
2017-11-20T14:08:23.097Z,18.00
2017-11-20T14:10:52.698Z,18.00
2017-11-20T14:13:21.905Z,18.00
2017-11-20T14:15:50.801Z,17.90
2017-11-20T14:18:19.591Z,17.80
2017-11-20T14:20:48.581Z,17.80
2017-11-20T14:23:18.284Z,18.00
2017-11-20T14:25:47.177Z,17.90
2017-11-20T14:28:16.437Z,18.00
2017-11-20T14:30:45.575Z,18.10
2017-11-20T14:33:14.876Z,18.10
2017-11-20T14:35:44.176Z,18.30
2017-11-20T14:38:13.067Z,18.50
2017-11-20T14:40:42.160Z,19.60
2017-11-20T14:43:10.976Z,21.10
2017-11-20T14:45:39.953Z,22.10
2017-11-20T14:48:28.504Z,21.70
2017-11-20T14:53:58.452Z,21.70
2017-11-20T14:56:27.655Z,21.20
2017-11-20T14:58:57.310Z,20.00
2017-11-20T15:01:30.225Z,19.50
2017-11-20T15:03:59.328Z,18.70
2017-11-20T15:06:28.572Z,18.50
2017-11-20T15:08:57.721Z,18.10
2017-11-20T15:11:27.631Z,18.00
2017-11-20T15:13:56.520Z,18.00
2017-11-20T15:16:26.233Z,17.70
2017-11-20T15:18:55.943Z,17.60
2017-11-20T15:21:24.783Z,17.60
2017-11-20T15:23:53.729Z,17.50
2017-11-20T15:26:22.614Z,17.30
2017-11-20T15:28:51.527Z,17.30
2017-11-20T15:31:20.395Z,17.30
2017-11-20T15:33:49.290Z,17.20
2017-11-20T15:36:18.382Z,17.10
2017-11-20T15:38:48.103Z,17.00
2017-11-20T15:41:16.983Z,16.90
2017-11-20T15:43:45.669Z,16.90
2017-11-20T15:46:14.560Z,17.00
2017-11-20T15:48:43.452Z,16.90
2017-11-20T15:51:12.137Z,16.90
2017-11-20T15:53:41.051Z,16.80
2017-11-20T15:56:09.926Z,16.80
2017-11-20T15:58:38.811Z,16.70
2017-11-20T16:01:07.705Z,16.70
2017-11-20T16:03:36.388Z,16.60
2017-11-20T16:06:05.284Z,16.60
2017-11-20T16:08:34.172Z,16.50
2017-11-20T16:11:03.267Z,16.50
2017-11-20T16:13:32.585Z,16.50
2017-11-20T16:16:02.483Z,16.50
2017-11-20T16:18:31.317Z,16.40
2017-11-20T16:21:00.984Z,16.40
2017-11-20T16:23:30.082Z,16.40
2017-11-20T16:25:58.968Z,16.40
2017-11-20T16:28:27.655Z,16.40
2017-11-20T16:30:56.651Z,16.30
2017-11-20T16:33:25.542Z,16.30
2017-11-20T16:35:54.330Z,16.30
2017-11-20T16:38:23.533Z,16.20
2017-11-20T16:40:52.336Z,16.20
2017-11-20T16:43:21.362Z,16.20
2017-11-20T16:45:50.300Z,16.10
2017-11-20T16:48:19.299Z,16.10
2017-11-20T16:50:48.305Z,16.10
2017-11-20T16:53:17.196Z,16.10
2017-11-20T16:55:46.081Z,16.10
2017-11-20T17:01:31.575Z,16.00
2017-11-20T17:04:00.583Z,16.00
2017-11-20T17:06:29.364Z,16.00
2017-11-20T17:08:58.197Z,16.00
2017-11-20T17:11:27.350Z,16.00
2017-11-20T17:13:56.237Z,16.00
2017-11-20T17:16:24.934Z,16.00
2017-11-20T17:18:53.785Z,16.00
2017-11-20T17:21:22.496Z,16.00
2017-11-20T17:23:51.388Z,15.90
2017-11-20T17:26:20.278Z,15.90
2017-11-20T17:28:48.925Z,15.90
2017-11-20T17:31:17.854Z,16.00
2017-11-20T17:33:46.766Z,15.90
2017-11-20T17:36:15.635Z,15.90
2017-11-20T17:38:44.532Z,15.90
2017-11-20T17:41:13.423Z,15.90
2017-11-20T17:43:42.108Z,15.90
2017-11-20T17:46:11.814Z,15.90
2017-11-20T17:48:40.815Z,15.90
2017-11-20T17:51:09.492Z,15.90
2017-11-20T17:53:38.189Z,15.80
2017-11-20T17:56:07.071Z,15.80
2017-11-20T17:58:35.757Z,15.80
2017-11-20T18:01:04.649Z,15.80
2017-11-20T18:03:33.544Z,15.80
2017-11-20T18:06:03.248Z,15.70
2017-11-20T18:08:31.939Z,15.70
2017-11-20T18:11:02.263Z,15.80
2017-11-20T18:13:32.038Z,15.70
2017-11-20T18:16:00.860Z,15.70
2017-11-20T18:21:28.346Z,15.70
2017-11-20T18:23:57.524Z,15.60
2017-11-20T18:26:26.338Z,15.70
2017-11-20T18:28:56.961Z,15.70
2017-11-20T18:31:26.567Z,15.60
2017-11-20T18:33:55.521Z,15.60
2017-11-20T18:36:24.609Z,15.60
2017-11-20T18:38:54.368Z,15.70
2017-11-20T18:41:23.459Z,15.60
2017-11-20T18:43:52.370Z,15.60
2017-11-20T18:46:21.063Z,15.60
2017-11-20T18:48:50.099Z,15.60
2017-11-20T18:51:19.027Z,15.60
2017-11-20T18:53:47.931Z,15.60
2017-11-20T18:56:16.778Z,15.50
2017-11-20T18:58:45.494Z,15.50
2017-11-20T19:01:26.058Z,15.40
2017-11-20T19:04:06.374Z,15.40
2017-11-20T19:06:46.825Z,15.40
2017-11-20T19:09:15.669Z,15.40
2017-11-20T19:11:44.606Z,15.40
2017-11-20T19:14:14.479Z,15.40
2017-11-20T19:16:43.594Z,15.40
2017-11-20T19:19:12.901Z,15.50
2017-11-20T19:21:42.556Z,15.40
2017-11-20T19:24:11.692Z,15.40
2017-11-20T19:26:41.008Z,15.40
2017-11-20T19:29:10.292Z,15.40
2017-11-20T19:31:39.562Z,15.40
2017-11-20T19:34:09.102Z,15.40
2017-11-20T19:36:37.893Z,15.40
2017-11-20T19:39:07.793Z,15.40
2017-11-20T19:41:37.071Z,15.40
2017-11-20T19:44:06.596Z,15.40
2017-11-20T19:46:35.435Z,15.30
2017-11-20T19:49:04.170Z,15.40
2017-11-20T19:51:33.184Z,15.40
2017-11-20T19:54:02.982Z,15.30
2017-11-20T19:56:32.707Z,15.30
2017-11-20T20:07:51.400Z,15.30
2017-11-20T20:10:20.599Z,15.30
2017-11-20T20:12:49.949Z,15.30
2017-11-20T20:15:33.975Z,15.30
2017-11-20T20:18:03.554Z,15.20
2017-11-20T20:20:32.753Z,15.20
2017-11-20T20:23:01.519Z,15.20
2017-11-20T20:25:30.535Z,15.20
2017-11-20T20:27:59.632Z,15.20
2017-11-20T20:30:28.536Z,15.20
2017-11-20T20:32:58.320Z,15.10
2017-11-20T20:35:27.127Z,15.10
2017-11-20T20:37:56.443Z,15.10
2017-11-20T20:40:25.664Z,15.10
2017-11-20T20:42:54.887Z,15.10
2017-11-20T20:45:23.784Z,15.10
2017-11-20T20:47:52.546Z,15.10
2017-11-20T20:50:21.703Z,15.00
2017-11-20T20:52:50.442Z,15.00
2017-11-20T20:55:19.796Z,15.00
2017-11-20T20:57:48.588Z,15.00
2017-11-20T21:00:17.505Z,15.00
2017-11-20T21:02:46.751Z,15.00
2017-11-20T21:05:16.381Z,14.90
2017-11-20T21:07:45.234Z,14.90
2017-11-20T21:10:19.887Z,14.80
2017-11-20T21:12:48.648Z,14.80
2017-11-20T21:15:18.205Z,14.80
2017-11-20T21:17:47.056Z,14.70
2017-11-20T21:20:15.828Z,14.80
2017-11-20T21:22:44.556Z,14.70
2017-11-20T21:25:13.585Z,14.70
2017-11-20T21:27:42.594Z,14.70
2017-11-20T21:30:12.770Z,14.60
2017-11-20T21:32:42.372Z,14.60
2017-11-20T21:35:13.761Z,14.70
2017-11-20T21:37:43.241Z,14.70
2017-11-20T21:40:12.825Z,14.70
2017-11-20T21:42:41.803Z,14.70
2017-11-20T21:45:10.690Z,14.70
2017-11-20T21:47:39.911Z,14.60
2017-11-20T21:50:09.170Z,14.60
2017-11-20T21:52:39.263Z,14.50
2017-11-20T21:55:08.555Z,14.50
2017-11-20T21:57:39.971Z,14.50
2017-11-20T22:00:09.192Z,14.50
2017-11-20T22:02:39.525Z,14.50
2017-11-20T22:05:09.645Z,14.50
2017-11-20T22:07:39.815Z,14.50
2017-11-20T22:10:09.048Z,14.50
2017-11-20T22:12:45.287Z,14.40
2017-11-20T22:15:15.228Z,14.50
2017-11-20T22:17:44.329Z,14.50
2017-11-20T22:20:13.835Z,14.50
2017-11-20T22:22:42.866Z,14.50
2017-11-20T22:25:11.606Z,14.50
2017-11-20T22:27:40.293Z,14.50
2017-11-20T22:30:09.091Z,14.40
2017-11-20T22:32:38.886Z,14.50
2017-11-20T22:35:07.796Z,14.40
2017-11-20T22:37:36.948Z,14.40
2017-11-20T22:40:06.386Z,14.50
2017-11-20T22:42:35.175Z,14.40
2017-11-20T22:45:03.971Z,14.40
2017-11-20T22:47:32.862Z,14.40
2017-11-20T22:50:01.702Z,14.30
2017-11-20T22:52:30.456Z,14.30
2017-11-20T22:54:59.330Z,14.30
2017-11-20T22:57:28.222Z,14.30
2017-11-20T22:59:57.068Z,14.30
2017-11-20T23:02:25.712Z,14.20
2017-11-20T23:04:54.367Z,14.20
2017-11-20T23:07:23.064Z,14.20
2017-11-20T23:09:52.771Z,14.20
2017-11-20T23:12:21.541Z,14.20
2017-11-20T23:14:51.110Z,14.10
2017-11-20T23:17:19.854Z,14.10
2017-11-20T23:19:48.746Z,14.20
2017-11-20T23:22:17.738Z,14.10
2017-11-20T23:24:46.526Z,14.10
2017-11-20T23:27:15.140Z,14.10
2017-11-20T23:29:43.877Z,14.10
2017-11-20T23:32:12.606Z,14.10
2017-11-20T23:34:41.191Z,14.20
2017-11-20T23:37:09.856Z,14.10
2017-11-20T23:39:38.542Z,14.10
2017-11-20T23:42:07.282Z,14.10
2017-11-20T23:44:35.989Z,14.10
2017-11-20T23:47:04.705Z,14.00
2017-11-20T23:49:33.357Z,14.00
2017-11-20T23:52:02.047Z,14.10
2017-11-20T23:54:37.658Z,14.00
2017-11-20T23:57:07.084Z,14.10
2017-11-20T23:59:36.431Z,14.10
